sensor_id;sensor_type;location;lat;lon;timestamp;P1;durP1;ratioP1;P2;durP2;ratioP2
50543;SDS011;41176;44.032;20.900;2024-01-15T00:02:20;8.80;;;3.20;;
50543;SDS011;41176;44.032;20.900;2024-01-15T00:04:46;4.80;;;2.47;;
50543;SDS011;41176;44.032;20.900;2024-01-15T00:07:11;4.78;;;2.88;;
50543;SDS011;41176;44.032;20.900;2024-01-15T00:09:37;4.93;;;3.38;;
50543;SDS011;41176;44.032;20.900;2024-01-15T00:12:03;8.05;;;2.55;;
50543;SDS011;41176;44.032;20.900;2024-01-15T00:14:29;4.65;;;2.53;;
50543;SDS011;41176;44.032;20.900;2024-01-15T00:16:55;6.40;;;2.28;;
50543;SDS011;41176;44.032;20.900;2024-01-15T00:19:21;4.03;;;2.05;;
50543;SDS011;41176;44.032;20.900;2024-01-15T00:21:47;6.25;;;2.67;;
50543;SDS011;41176;44.032;20.900;2024-01-15T00:24:13;4.43;;;2.75;;
50543;SDS011;41176;44.032;20.900;2024-01-15T00:26:39;4.65;;;2.55;;
50543;SDS011;41176;44.032;20.900;2024-01-15T00:29:08;3.25;;;2.22;;
50543;SDS011;41176;44.032;20.900;2024-01-15T00:31:34;2.72;;;1.58;;
50543;SDS011;41176;44.032;20.900;2024-01-15T00:34:00;4.30;;;2.00;;
50543;SDS011;41176;44.032;20.900;2024-01-15T00:36:26;3.47;;;2.05;;
50543;SDS011;41176;44.032;20.900;2024-01-15T00:38:52;2.67;;;1.65;;
50543;SDS011;41176;44.032;20.900;2024-01-15T00:41:18;6.03;;;2.80;;
50543;SDS011;41176;44.032;20.900;2024-01-15T00:43:45;2.55;;;1.58;;
50543;SDS011;41176;44.032;20.900;2024-01-15T00:46:11;2.72;;;2.20;;
50543;SDS011;41176;44.032;20.900;2024-01-15T00:48:37;6.90;;;3.35;;
50543;SDS011;41176;44.032;20.900;2024-01-15T00:51:06;3.28;;;1.95;;
50543;SDS011;41176;44.032;20.900;2024-01-15T00:53:31;3.45;;;1.92;;
50543;SDS011;41176;44.032;20.900;2024-01-15T00:55:57;3.70;;;2.38;;
50543;SDS011;41176;44.032;20.900;2024-01-15T00:58:23;10.27;;;2.90;;
50543;SDS011;41176;44.032;20.900;2024-01-15T01:00:48;2.55;;;2.28;;
50543;SDS011;41176;44.032;20.900;2024-01-15T01:03:14;4.50;;;1.77;;
50543;SDS011;41176;44.032;20.900;2024-01-15T01:05:40;4.90;;;2.90;;
50543;SDS011;41176;44.032;20.900;2024-01-15T01:08:06;4.07;;;2.13;;
50543;SDS011;41176;44.032;20.900;2024-01-15T01:10:31;3.35;;;1.80;;
50543;SDS011;41176;44.032;20.900;2024-01-15T01:12:57;4.32;;;1.95;;
50543;SDS011;41176;44.032;20.900;2024-01-15T01:15:23;2.80;;;2.03;;
50543;SDS011;41176;44.032;20.900;2024-01-15T01:17:49;3.63;;;2.05;;
50543;SDS011;41176;44.032;20.900;2024-01-15T01:20:15;1.55;;;1.42;;
50543;SDS011;41176;44.032;20.900;2024-01-15T01:22:41;4.13;;;1.48;;
50543;SDS011;41176;44.032;20.900;2024-01-15T01:25:07;2.65;;;1.58;;
50543;SDS011;41176;44.032;20.900;2024-01-15T01:27:33;6.70;;;2.35;;
50543;SDS011;41176;44.032;20.900;2024-01-15T01:30:00;3.25;;;1.88;;
50543;SDS011;41176;44.032;20.900;2024-01-15T01:32:25;2.50;;;2.00;;
50543;SDS011;41176;44.032;20.900;2024-01-15T01:34:51;5.90;;;2.22;;
50543;SDS011;41176;44.032;20.900;2024-01-15T01:37:17;7.90;;;2.40;;
50543;SDS011;41176;44.032;20.900;2024-01-15T01:39:43;3.75;;;1.75;;
50543;SDS011;41176;44.032;20.900;2024-01-15T01:42:09;2.50;;;1.85;;
50543;SDS011;41176;44.032;20.900;2024-01-15T01:44:35;6.28;;;2.75;;
50543;SDS011;41176;44.032;20.900;2024-01-15T01:47:01;2.75;;;1.73;;
50543;SDS011;41176;44.032;20.900;2024-01-15T01:49:28;2.80;;;1.67;;
50543;SDS011;41176;44.032;20.900;2024-01-15T01:51:58;2.78;;;1.45;;
50543;SDS011;41176;44.032;20.900;2024-01-15T01:54:25;2.45;;;1.58;;
50543;SDS011;41176;44.032;20.900;2024-01-15T01:56:53;3.40;;;1.98;;
50543;SDS011;41176;44.032;20.900;2024-01-15T01:59:18;4.55;;;1.88;;
50543;SDS011;41176;44.032;20.900;2024-01-15T02:01:44;4.43;;;1.40;;
50543;SDS011;41176;44.032;20.900;2024-01-15T02:04:11;3.25;;;1.50;;
50543;SDS011;41176;44.032;20.900;2024-01-15T02:06:37;2.85;;;1.90;;
50543;SDS011;41176;44.032;20.900;2024-01-15T02:09:03;4.30;;;2.42;;
50543;SDS011;41176;44.032;20.900;2024-01-15T02:11:30;4.47;;;2.50;;
50543;SDS011;41176;44.032;20.900;2024-01-15T02:13:56;2.95;;;1.70;;
50543;SDS011;41176;44.032;20.900;2024-01-15T02:16:22;3.22;;;2.83;;
50543;SDS011;41176;44.032;20.900;2024-01-15T02:18:48;4.63;;;2.72;;
50543;SDS011;41176;44.032;20.900;2024-01-15T02:21:14;3.65;;;2.65;;
50543;SDS011;41176;44.032;20.900;2024-01-15T02:23:39;6.45;;;2.65;;
50543;SDS011;41176;44.032;20.900;2024-01-15T02:26:05;4.35;;;2.15;;
50543;SDS011;41176;44.032;20.900;2024-01-15T02:28:33;4.35;;;2.28;;
50543;SDS011;41176;44.032;20.900;2024-01-15T02:30:59;2.53;;;1.95;;
50543;SDS011;41176;44.032;20.900;2024-01-15T02:33:25;3.17;;;1.73;;
50543;SDS011;41176;44.032;20.900;2024-01-15T02:35:50;3.00;;;2.17;;
50543;SDS011;41176;44.032;20.900;2024-01-15T02:38:16;5.63;;;2.63;;
50543;SDS011;41176;44.032;20.900;2024-01-15T02:40:43;5.50;;;4.35;;
50543;SDS011;41176;44.032;20.900;2024-01-15T02:43:10;7.43;;;3.22;;
50543;SDS011;41176;44.032;20.900;2024-01-15T02:45:36;4.60;;;2.35;;
50543;SDS011;41176;44.032;20.900;2024-01-15T02:48:01;3.80;;;2.88;;
50543;SDS011;41176;44.032;20.900;2024-01-15T02:50:27;6.60;;;4.00;;
50543;SDS011;41176;44.032;20.900;2024-01-15T02:52:53;6.47;;;2.58;;
50543;SDS011;41176;44.032;20.900;2024-01-15T02:55:19;5.88;;;3.25;;
50543;SDS011;41176;44.032;20.900;2024-01-15T02:57:46;6.05;;;2.40;;
50543;SDS011;41176;44.032;20.900;2024-01-15T03:00:11;4.50;;;3.47;;
50543;SDS011;41176;44.032;20.900;2024-01-15T03:02:38;3.55;;;1.55;;
50543;SDS011;41176;44.032;20.900;2024-01-15T03:05:06;4.75;;;3.13;;
50543;SDS011;41176;44.032;20.900;2024-01-15T03:07:32;4.03;;;2.15;;
50543;SDS011;41176;44.032;20.900;2024-01-15T03:09:58;4.82;;;2.33;;
50543;SDS011;41176;44.032;20.900;2024-01-15T03:12:24;5.15;;;2.20;;
50543;SDS011;41176;44.032;20.900;2024-01-15T03:14:50;5.05;;;2.25;;
50543;SDS011;41176;44.032;20.900;2024-01-15T03:17:16;4.95;;;2.50;;
50543;SDS011;41176;44.032;20.900;2024-01-15T03:19:42;7.80;;;2.92;;
50543;SDS011;41176;44.032;20.900;2024-01-15T03:22:07;3.22;;;1.92;;
50543;SDS011;41176;44.032;20.900;2024-01-15T03:24:34;5.45;;;2.63;;
50543;SDS011;41176;44.032;20.900;2024-01-15T03:27:00;4.60;;;3.22;;
50543;SDS011;41176;44.032;20.900;2024-01-15T03:29:26;6.90;;;3.58;;
50543;SDS011;41176;44.032;20.900;2024-01-15T03:31:52;3.45;;;2.35;;
50543;SDS011;41176;44.032;20.900;2024-01-15T03:34:17;6.10;;;2.97;;
50543;SDS011;41176;44.032;20.900;2024-01-15T03:36:43;8.40;;;3.78;;
50543;SDS011;41176;44.032;20.900;2024-01-15T03:39:09;4.40;;;2.33;;
50543;SDS011;41176;44.032;20.900;2024-01-15T03:41:35;2.97;;;1.95;;
50543;SDS011;41176;44.032;20.900;2024-01-15T03:44:00;2.97;;;2.40;;
50543;SDS011;41176;44.032;20.900;2024-01-15T03:46:26;3.75;;;2.65;;
50543;SDS011;41176;44.032;20.900;2024-01-15T03:48:52;2.22;;;1.85;;
50543;SDS011;41176;44.032;20.900;2024-01-15T03:51:18;1.30;;;1.20;;
50543;SDS011;41176;44.032;20.900;2024-01-15T03:53:44;3.38;;;1.65;;
50543;SDS011;41176;44.032;20.900;2024-01-15T03:56:10;2.67;;;1.70;;
50543;SDS011;41176;44.032;20.900;2024-01-15T03:58:35;3.45;;;2.03;;
50543;SDS011;41176;44.032;20.900;2024-01-15T04:01:01;3.40;;;2.10;;
50543;SDS011;41176;44.032;20.900;2024-01-15T04:03:27;3.17;;;2.22;;
50543;SDS011;41176;44.032;20.900;2024-01-15T04:05:53;2.38;;;1.60;;
50543;SDS011;41176;44.032;20.900;2024-01-15T04:08:19;4.70;;;1.48;;
50543;SDS011;41176;44.032;20.900;2024-01-15T04:10:44;3.80;;;1.95;;
50543;SDS011;41176;44.032;20.900;2024-01-15T04:13:10;3.40;;;1.65;;
50543;SDS011;41176;44.032;20.900;2024-01-15T04:15:36;7.10;;;2.97;;
50543;SDS011;41176;44.032;20.900;2024-01-15T04:18:03;2.78;;;1.65;;
50543;SDS011;41176;44.032;20.900;2024-01-15T04:20:28;4.65;;;2.17;;
50543;SDS011;41176;44.032;20.900;2024-01-15T04:22:54;3.00;;;1.27;;
50543;SDS011;41176;44.032;20.900;2024-01-15T04:25:20;2.90;;;1.42;;
50543;SDS011;41176;44.032;20.900;2024-01-15T04:27:46;4.63;;;2.08;;
50543;SDS011;41176;44.032;20.900;2024-01-15T04:30:11;7.72;;;2.28;;
50543;SDS011;41176;44.032;20.900;2024-01-15T04:32:37;2.67;;;1.67;;
50543;SDS011;41176;44.032;20.900;2024-01-15T04:35:03;3.53;;;1.77;;
50543;SDS011;41176;44.032;20.900;2024-01-15T04:37:29;9.00;;;3.38;;
50543;SDS011;41176;44.032;20.900;2024-01-15T04:39:55;5.40;;;2.67;;
50543;SDS011;41176;44.032;20.900;2024-01-15T04:42:22;5.78;;;2.33;;
50543;SDS011;41176;44.032;20.900;2024-01-15T04:44:48;1.65;;;1.35;;
50543;SDS011;41176;44.032;20.900;2024-01-15T04:47:14;3.70;;;1.95;;
50543;SDS011;41176;44.032;20.900;2024-01-15T04:49:40;4.22;;;2.88;;
50543;SDS011;41176;44.032;20.900;2024-01-15T04:52:06;3.20;;;1.95;;
50543;SDS011;41176;44.032;20.900;2024-01-15T04:54:35;2.90;;;1.63;;
50543;SDS011;41176;44.032;20.900;2024-01-15T04:57:01;1.98;;;0.95;;
50543;SDS011;41176;44.032;20.900;2024-01-15T04:59:27;4.10;;;2.08;;
50543;SDS011;41176;44.032;20.900;2024-01-15T05:01:53;3.13;;;2.13;;
50543;SDS011;41176;44.032;20.900;2024-01-15T05:04:20;3.05;;;2.25;;
50543;SDS011;41176;44.032;20.900;2024-01-15T05:06:45;2.08;;;1.38;;
50543;SDS011;41176;44.032;20.900;2024-01-15T05:09:11;2.35;;;1.83;;
50543;SDS011;41176;44.032;20.900;2024-01-15T05:11:38;7.00;;;2.42;;
50543;SDS011;41176;44.032;20.900;2024-01-15T05:14:04;3.03;;;1.67;;
50543;SDS011;41176;44.032;20.900;2024-01-15T05:16:30;3.80;;;1.75;;
50543;SDS011;41176;44.032;20.900;2024-01-15T05:18:56;7.07;;;1.60;;
50543;SDS011;41176;44.032;20.900;2024-01-15T05:21:21;6.72;;;1.50;;
50543;SDS011;41176;44.032;20.900;2024-01-15T05:23:47;3.17;;;1.45;;
50543;SDS011;41176;44.032;20.900;2024-01-15T05:26:13;1.45;;;0.93;;
50543;SDS011;41176;44.032;20.900;2024-01-15T05:28:40;2.22;;;1.58;;
50543;SDS011;41176;44.032;20.900;2024-01-15T05:31:07;2.63;;;1.50;;
50543;SDS011;41176;44.032;20.900;2024-01-15T05:33:34;3.20;;;1.77;;
50543;SDS011;41176;44.032;20.900;2024-01-15T05:35:59;2.00;;;1.20;;
50543;SDS011;41176;44.032;20.900;2024-01-15T05:38:25;3.75;;;1.52;;
50543;SDS011;41176;44.032;20.900;2024-01-15T05:40:51;3.42;;;2.50;;
50543;SDS011;41176;44.032;20.900;2024-01-15T05:43:17;4.18;;;1.90;;
50543;SDS011;41176;44.032;20.900;2024-01-15T05:45:42;3.20;;;1.95;;
50543;SDS011;41176;44.032;20.900;2024-01-15T05:48:09;4.60;;;1.98;;
50543;SDS011;41176;44.032;20.900;2024-01-15T05:50:35;3.53;;;1.63;;
50543;SDS011;41176;44.032;20.900;2024-01-15T05:53:01;1.58;;;1.13;;
50543;SDS011;41176;44.032;20.900;2024-01-15T05:55:27;1.90;;;1.60;;
50543;SDS011;41176;44.032;20.900;2024-01-15T05:57:53;1.48;;;1.25;;
50543;SDS011;41176;44.032;20.900;2024-01-15T06:00:20;2.58;;;1.38;;
50543;SDS011;41176;44.032;20.900;2024-01-15T06:02:46;4.60;;;2.72;;
50543;SDS011;41176;44.032;20.900;2024-01-15T06:05:11;1.70;;;1.20;;
50543;SDS011;41176;44.032;20.900;2024-01-15T06:07:37;3.67;;;1.77;;
50543;SDS011;41176;44.032;20.900;2024-01-15T06:10:03;1.58;;;1.17;;
50543;SDS011;41176;44.032;20.900;2024-01-15T06:12:29;5.30;;;2.55;;
50543;SDS011;41176;44.032;20.900;2024-01-15T06:14:57;3.85;;;2.10;;
50543;SDS011;41176;44.032;20.900;2024-01-15T06:17:22;6.07;;;2.22;;
50543;SDS011;41176;44.032;20.900;2024-01-15T06:19:48;7.35;;;2.85;;
50543;SDS011;41176;44.032;20.900;2024-01-15T06:22:14;3.40;;;2.42;;
50543;SDS011;41176;44.032;20.900;2024-01-15T06:24:40;3.05;;;1.80;;
50543;SDS011;41176;44.032;20.900;2024-01-15T06:27:06;3.15;;;1.42;;
50543;SDS011;41176;44.032;20.900;2024-01-15T06:29:31;3.63;;;2.25;;
50543;SDS011;41176;44.032;20.900;2024-01-15T06:31:57;4.50;;;2.67;;
50543;SDS011;41176;44.032;20.900;2024-01-15T06:34:23;5.60;;;1.98;;
50543;SDS011;41176;44.032;20.900;2024-01-15T06:36:48;2.55;;;1.75;;
50543;SDS011;41176;44.032;20.900;2024-01-15T06:39:14;4.10;;;2.30;;
50543;SDS011;41176;44.032;20.900;2024-01-15T06:41:40;3.95;;;2.30;;
50543;SDS011;41176;44.032;20.900;2024-01-15T06:44:09;6.72;;;2.03;;
50543;SDS011;41176;44.032;20.900;2024-01-15T06:46:36;4.30;;;1.52;;
50543;SDS011;41176;44.032;20.900;2024-01-15T06:49:02;3.15;;;1.55;;
50543;SDS011;41176;44.032;20.900;2024-01-15T06:51:29;2.80;;;1.63;;
50543;SDS011;41176;44.032;20.900;2024-01-15T06:53:55;2.88;;;1.48;;
50543;SDS011;41176;44.032;20.900;2024-01-15T06:56:20;2.60;;;1.27;;
50543;SDS011;41176;44.032;20.900;2024-01-15T06:58:46;2.28;;;1.42;;
50543;SDS011;41176;44.032;20.900;2024-01-15T07:01:12;1.92;;;1.08;;
50543;SDS011;41176;44.032;20.900;2024-01-15T07:03:37;1.42;;;1.25;;
50543;SDS011;41176;44.032;20.900;2024-01-15T07:06:03;3.28;;;1.58;;
50543;SDS011;41176;44.032;20.900;2024-01-15T07:08:30;4.55;;;1.88;;
50543;SDS011;41176;44.032;20.900;2024-01-15T07:10:55;0.93;;;0.82;;
50543;SDS011;41176;44.032;20.900;2024-01-15T07:13:21;1.85;;;1.17;;
50543;SDS011;41176;44.032;20.900;2024-01-15T07:15:47;1.58;;;1.08;;
50543;SDS011;41176;44.032;20.900;2024-01-15T07:18:13;3.05;;;1.60;;
50543;SDS011;41176;44.032;20.900;2024-01-15T07:20:38;2.13;;;1.15;;
50543;SDS011;41176;44.032;20.900;2024-01-15T07:23:04;1.83;;;1.02;;
50543;SDS011;41176;44.032;20.900;2024-01-15T07:25:30;2.60;;;1.55;;
50543;SDS011;41176;44.032;20.900;2024-01-15T07:27:55;3.70;;;1.15;;
50543;SDS011;41176;44.032;20.900;2024-01-15T07:30:21;2.30;;;1.73;;
50543;SDS011;41176;44.032;20.900;2024-01-15T07:32:47;2.25;;;1.38;;
50543;SDS011;41176;44.032;20.900;2024-01-15T07:35:14;3.45;;;1.50;;
50543;SDS011;41176;44.032;20.900;2024-01-15T07:37:40;2.63;;;1.08;;
50543;SDS011;41176;44.032;20.900;2024-01-15T07:40:06;3.40;;;1.88;;
50543;SDS011;41176;44.032;20.900;2024-01-15T07:42:34;1.23;;;0.82;;
50543;SDS011;41176;44.032;20.900;2024-01-15T07:45:00;1.23;;;0.55;;
50543;SDS011;41176;44.032;20.900;2024-01-15T07:47:26;2.90;;;1.35;;
50543;SDS011;41176;44.032;20.900;2024-01-15T07:49:52;3.20;;;1.80;;
50543;SDS011;41176;44.032;20.900;2024-01-15T07:52:19;2.50;;;1.25;;
50543;SDS011;41176;44.032;20.900;2024-01-15T07:54:44;1.88;;;0.93;;
50543;SDS011;41176;44.032;20.900;2024-01-15T07:57:10;1.45;;;0.60;;
50543;SDS011;41176;44.032;20.900;2024-01-15T07:59:36;3.22;;;2.05;;
50543;SDS011;41176;44.032;20.900;2024-01-15T08:02:02;1.70;;;0.90;;
50543;SDS011;41176;44.032;20.900;2024-01-15T08:04:28;2.28;;;1.27;;
50543;SDS011;41176;44.032;20.900;2024-01-15T08:06:54;0.82;;;0.65;;
50543;SDS011;41176;44.032;20.900;2024-01-15T08:09:19;2.30;;;1.58;;
50543;SDS011;41176;44.032;20.900;2024-01-15T08:11:45;2.05;;;1.85;;
50543;SDS011;41176;44.032;20.900;2024-01-15T08:14:11;3.30;;;2.08;;
50543;SDS011;41176;44.032;20.900;2024-01-15T08:16:38;1.17;;;1.05;;
50543;SDS011;41176;44.032;20.900;2024-01-15T08:19:04;5.65;;;4.03;;
50543;SDS011;41176;44.032;20.900;2024-01-15T08:21:30;5.43;;;2.97;;
50543;SDS011;41176;44.032;20.900;2024-01-15T08:24:00;2.92;;;2.72;;
50543;SDS011;41176;44.032;20.900;2024-01-15T08:26:27;5.65;;;4.13;;
50543;SDS011;41176;44.032;20.900;2024-01-15T08:28:53;5.82;;;2.85;;
50543;SDS011;41176;44.032;20.900;2024-01-15T08:31:18;5.13;;;2.38;;
50543;SDS011;41176;44.032;20.900;2024-01-15T08:33:44;6.15;;;3.25;;
50543;SDS011;41176;44.032;20.900;2024-01-15T08:36:10;8.38;;;2.85;;
50543;SDS011;41176;44.032;20.900;2024-01-15T08:38:36;4.18;;;2.97;;
50543;SDS011;41176;44.032;20.900;2024-01-15T08:41:01;6.50;;;3.08;;
50543;SDS011;41176;44.032;20.900;2024-01-15T08:43:27;3.65;;;2.88;;
50543;SDS011;41176;44.032;20.900;2024-01-15T08:45:53;3.17;;;2.15;;
50543;SDS011;41176;44.032;20.900;2024-01-15T08:48:19;5.05;;;2.88;;
50543;SDS011;41176;44.032;20.900;2024-01-15T08:50:44;3.10;;;1.88;;
50543;SDS011;41176;44.032;20.900;2024-01-15T08:53:13;2.42;;;1.58;;
50543;SDS011;41176;44.032;20.900;2024-01-15T08:55:39;2.35;;;1.88;;
50543;SDS011;41176;44.032;20.900;2024-01-15T08:58:07;2.33;;;2.00;;
50543;SDS011;41176;44.032;20.900;2024-01-15T09:00:33;2.28;;;2.00;;
50543;SDS011;41176;44.032;20.900;2024-01-15T09:02:59;6.30;;;3.47;;
50543;SDS011;41176;44.032;20.900;2024-01-15T09:05:25;2.60;;;1.92;;
50543;SDS011;41176;44.032;20.900;2024-01-15T09:07:51;3.13;;;1.88;;
50543;SDS011;41176;44.032;20.900;2024-01-15T09:10:17;1.67;;;1.25;;
50543;SDS011;41176;44.032;20.900;2024-01-15T09:12:43;2.75;;;1.65;;
50543;SDS011;41176;44.032;20.900;2024-01-15T09:15:09;2.03;;;1.75;;
50543;SDS011;41176;44.032;20.900;2024-01-15T09:17:35;4.30;;;1.23;;
50543;SDS011;41176;44.032;20.900;2024-01-15T09:20:01;3.00;;;2.33;;
50543;SDS011;41176;44.032;20.900;2024-01-15T09:22:26;2.78;;;2.47;;
50543;SDS011;41176;44.032;20.900;2024-01-15T09:24:52;2.28;;;1.60;;
50543;SDS011;41176;44.032;20.900;2024-01-15T09:27:18;5.45;;;2.55;;
50543;SDS011;41176;44.032;20.900;2024-01-15T09:29:44;4.85;;;1.40;;
50543;SDS011;41176;44.032;20.900;2024-01-15T09:32:11;1.73;;;1.50;;
50543;SDS011;41176;44.032;20.900;2024-01-15T09:34:37;3.20;;;1.88;;
50543;SDS011;41176;44.032;20.900;2024-01-15T09:37:04;2.67;;;1.67;;
50543;SDS011;41176;44.032;20.900;2024-01-15T09:39:30;1.15;;;0.85;;
50543;SDS011;41176;44.032;20.900;2024-01-15T09:41:57;1.60;;;1.20;;
50543;SDS011;41176;44.032;20.900;2024-01-15T09:44:23;2.65;;;1.58;;
50543;SDS011;41176;44.032;20.900;2024-01-15T09:46:49;1.42;;;0.70;;
50543;SDS011;41176;44.032;20.900;2024-01-15T09:49:17;3.75;;;2.78;;
50543;SDS011;41176;44.032;20.900;2024-01-15T09:51:43;1.90;;;1.05;;
50543;SDS011;41176;44.032;20.900;2024-01-15T09:54:09;1.20;;;1.10;;
50543;SDS011;41176;44.032;20.900;2024-01-15T09:56:35;2.95;;;1.55;;
50543;SDS011;41176;44.032;20.900;2024-01-15T09:59:01;2.05;;;1.88;;
50543;SDS011;41176;44.032;20.900;2024-01-15T10:01:29;2.40;;;1.25;;
50543;SDS011;41176;44.032;20.900;2024-01-15T10:03:57;5.57;;;2.45;;
50543;SDS011;41176;44.032;20.900;2024-01-15T10:06:26;2.05;;;1.83;;
50543;SDS011;41176;44.032;20.900;2024-01-15T10:08:56;2.63;;;1.85;;
50543;SDS011;41176;44.032;20.900;2024-01-15T10:11:25;5.20;;;1.45;;
50543;SDS011;41176;44.032;20.900;2024-01-15T10:13:51;7.18;;;1.35;;
50543;SDS011;41176;44.032;20.900;2024-01-15T10:16:21;3.60;;;2.22;;
50543;SDS011;41176;44.032;20.900;2024-01-15T10:18:48;2.47;;;1.88;;
50543;SDS011;41176;44.032;20.900;2024-01-15T10:21:14;3.28;;;1.83;;
50543;SDS011;41176;44.032;20.900;2024-01-15T10:23:40;4.10;;;2.47;;
50543;SDS011;41176;44.032;20.900;2024-01-15T10:26:06;2.35;;;1.70;;
50543;SDS011;41176;44.032;20.900;2024-01-15T10:28:32;2.70;;;1.95;;
50543;SDS011;41176;44.032;20.900;2024-01-15T10:30:58;1.35;;;1.25;;
50543;SDS011;41176;44.032;20.900;2024-01-15T10:33:25;4.00;;;2.17;;
50543;SDS011;41176;44.032;20.900;2024-01-15T10:35:55;3.92;;;2.63;;
50543;SDS011;41176;44.032;20.900;2024-01-15T10:38:22;4.72;;;1.98;;
50543;SDS011;41176;44.032;20.900;2024-01-15T10:40:52;2.53;;;1.60;;
50543;SDS011;41176;44.032;20.900;2024-01-15T10:43:18;1.23;;;0.90;;
50543;SDS011;41176;44.032;20.900;2024-01-15T10:45:45;2.53;;;1.65;;
50543;SDS011;41176;44.032;20.900;2024-01-15T10:48:12;3.13;;;1.95;;
50543;SDS011;41176;44.032;20.900;2024-01-15T10:50:38;3.67;;;2.17;;
50543;SDS011;41176;44.032;20.900;2024-01-15T10:53:04;2.67;;;2.38;;
50543;SDS011;41176;44.032;20.900;2024-01-15T10:55:31;2.72;;;1.58;;
50543;SDS011;41176;44.032;20.900;2024-01-15T10:57:58;1.40;;;1.25;;
50543;SDS011;41176;44.032;20.900;2024-01-15T11:00:24;2.33;;;1.70;;
50543;SDS011;41176;44.032;20.900;2024-01-15T11:02:51;1.95;;;1.55;;
50543;SDS011;41176;44.032;20.900;2024-01-15T11:05:20;2.03;;;1.83;;
50543;SDS011;41176;44.032;20.900;2024-01-15T11:07:50;7.18;;;3.13;;
50543;SDS011;41176;44.032;20.900;2024-01-15T11:13:13;2.05;;;1.63;;
50543;SDS011;41176;44.032;20.900;2024-01-15T11:18:30;2.55;;;1.77;;
50543;SDS011;41176;44.032;20.900;2024-01-15T11:29:28;3.90;;;1.83;;
50543;SDS011;41176;44.032;20.900;2024-01-15T11:32:04;2.45;;;1.75;;
50543;SDS011;41176;44.032;20.900;2024-01-15T11:37:23;1.58;;;1.13;;
50543;SDS011;41176;44.032;20.900;2024-01-15T11:39:51;2.15;;;1.70;;
50543;SDS011;41176;44.032;20.900;2024-01-15T11:42:28;2.42;;;2.03;;
50543;SDS011;41176;44.032;20.900;2024-01-15T11:44:55;3.80;;;1.75;;
50543;SDS011;41176;44.032;20.900;2024-01-15T11:47:36;2.63;;;1.40;;
50543;SDS011;41176;44.032;20.900;2024-01-15T11:50:12;2.67;;;1.05;;
50543;SDS011;41176;44.032;20.900;2024-01-15T11:52:38;2.30;;;1.77;;
50543;SDS011;41176;44.032;20.900;2024-01-15T11:55:16;2.22;;;1.77;;
50543;SDS011;41176;44.032;20.900;2024-01-15T12:00:21;3.10;;;2.70;;
50543;SDS011;41176;44.032;20.900;2024-01-15T12:02:48;2.40;;;2.20;;
50543;SDS011;41176;44.032;20.900;2024-01-15T12:05:15;2.50;;;2.30;;
50543;SDS011;41176;44.032;20.900;2024-01-15T12:07:42;10.35;;;4.45;;
50543;SDS011;41176;44.032;20.900;2024-01-15T12:10:13;5.85;;;3.15;;
50543;SDS011;41176;44.032;20.900;2024-01-15T12:15:24;11.95;;;5.72;;
50543;SDS011;41176;44.032;20.900;2024-01-15T12:17:51;4.25;;;3.08;;
50543;SDS011;41176;44.032;20.900;2024-01-15T12:20:17;4.57;;;2.55;;
50543;SDS011;41176;44.032;20.900;2024-01-15T12:22:44;14.02;;;5.50;;
50543;SDS011;41176;44.032;20.900;2024-01-15T12:25:11;10.68;;;6.55;;
50543;SDS011;41176;44.032;20.900;2024-01-15T12:27:37;5.70;;;4.97;;
50543;SDS011;41176;44.032;20.900;2024-01-15T12:30:03;8.18;;;4.72;;
50543;SDS011;41176;44.032;20.900;2024-01-15T12:32:29;9.35;;;4.55;;
50543;SDS011;41176;44.032;20.900;2024-01-15T12:34:55;8.65;;;5.90;;
50543;SDS011;41176;44.032;20.900;2024-01-15T12:37:21;4.55;;;3.63;;
50543;SDS011;41176;44.032;20.900;2024-01-15T12:39:47;9.45;;;6.88;;
50543;SDS011;41176;44.032;20.900;2024-01-15T12:42:16;12.02;;;5.13;;
50543;SDS011;41176;44.032;20.900;2024-01-15T12:44:42;24.42;;;6.15;;
50543;SDS011;41176;44.032;20.900;2024-01-15T12:47:09;11.15;;;7.20;;
50543;SDS011;41176;44.032;20.900;2024-01-15T12:49:36;5.57;;;4.15;;
50543;SDS011;41176;44.032;20.900;2024-01-15T12:52:02;4.72;;;3.60;;
50543;SDS011;41176;44.032;20.900;2024-01-15T12:54:28;8.57;;;5.63;;
50543;SDS011;41176;44.032;20.900;2024-01-15T12:56:54;16.05;;;4.70;;
50543;SDS011;41176;44.032;20.900;2024-01-15T12:59:20;12.07;;;5.53;;
50543;SDS011;41176;44.032;20.900;2024-01-15T13:01:46;7.75;;;6.82;;
50543;SDS011;41176;44.032;20.900;2024-01-15T13:04:20;10.98;;;6.57;;
50543;SDS011;41176;44.032;20.900;2024-01-15T13:06:50;4.93;;;3.00;;
50543;SDS011;41176;44.032;20.900;2024-01-15T13:09:16;8.23;;;4.97;;
50543;SDS011;41176;44.032;20.900;2024-01-15T13:11:43;6.45;;;5.20;;
50543;SDS011;41176;44.032;20.900;2024-01-15T13:14:12;6.55;;;5.65;;
50543;SDS011;41176;44.032;20.900;2024-01-15T13:16:41;7.22;;;5.13;;
50543;SDS011;41176;44.032;20.900;2024-01-15T13:19:10;9.32;;;5.25;;
50543;SDS011;41176;44.032;20.900;2024-01-15T13:21:37;7.60;;;5.63;;
50543;SDS011;41176;44.032;20.900;2024-01-15T13:24:04;9.35;;;7.65;;
50543;SDS011;41176;44.032;20.900;2024-01-15T13:26:31;13.10;;;5.25;;
50543;SDS011;41176;44.032;20.900;2024-01-15T13:28:58;4.95;;;3.33;;
50543;SDS011;41176;44.032;20.900;2024-01-15T13:31:30;11.48;;;4.30;;
50543;SDS011;41176;44.032;20.900;2024-01-15T13:33:56;6.80;;;5.15;;
50543;SDS011;41176;44.032;20.900;2024-01-15T13:36:22;7.00;;;4.05;;
50543;SDS011;41176;44.032;20.900;2024-01-15T13:38:51;9.52;;;2.75;;
50543;SDS011;41176;44.032;20.900;2024-01-15T13:41:19;4.72;;;3.58;;
50543;SDS011;41176;44.032;20.900;2024-01-15T13:43:49;5.53;;;2.83;;
50543;SDS011;41176;44.032;20.900;2024-01-15T13:46:16;1.80;;;1.65;;
50543;SDS011;41176;44.032;20.900;2024-01-15T13:48:42;2.03;;;1.70;;
50543;SDS011;41176;44.032;20.900;2024-01-15T13:51:08;2.40;;;2.20;;
50543;SDS011;41176;44.032;20.900;2024-01-15T13:53:34;5.82;;;3.72;;
50543;SDS011;41176;44.032;20.900;2024-01-15T13:56:02;2.28;;;2.08;;
50543;SDS011;41176;44.032;20.900;2024-01-15T13:58:29;7.53;;;1.88;;
50543;SDS011;41176;44.032;20.900;2024-01-15T14:00:56;5.55;;;3.15;;
50543;SDS011;41176;44.032;20.900;2024-01-15T14:03:21;3.47;;;2.80;;
50543;SDS011;41176;44.032;20.900;2024-01-15T14:05:47;6.53;;;2.65;;
50543;SDS011;41176;44.032;20.900;2024-01-15T14:08:13;2.00;;;1.73;;
50543;SDS011;41176;44.032;20.900;2024-01-15T14:10:39;2.58;;;2.13;;
50543;SDS011;41176;44.032;20.900;2024-01-15T14:13:05;2.88;;;1.70;;
50543;SDS011;41176;44.032;20.900;2024-01-15T14:15:30;2.22;;;1.85;;
50543;SDS011;41176;44.032;20.900;2024-01-15T14:17:56;2.28;;;2.00;;
50543;SDS011;41176;44.032;20.900;2024-01-15T14:20:23;3.25;;;2.67;;
50543;SDS011;41176;44.032;20.900;2024-01-15T14:22:49;2.53;;;1.52;;
50543;SDS011;41176;44.032;20.900;2024-01-15T14:25:14;2.90;;;2.45;;
50543;SDS011;41176;44.032;20.900;2024-01-15T14:27:40;4.55;;;1.92;;
50543;SDS011;41176;44.032;20.900;2024-01-15T14:30:06;1.55;;;1.23;;
50543;SDS011;41176;44.032;20.900;2024-01-15T14:32:33;2.67;;;1.95;;
50543;SDS011;41176;44.032;20.900;2024-01-15T14:34:59;2.05;;;1.73;;
50543;SDS011;41176;44.032;20.900;2024-01-15T14:37:25;4.38;;;2.00;;
50543;SDS011;41176;44.032;20.900;2024-01-15T14:39:51;1.40;;;1.27;;
50543;SDS011;41176;44.032;20.900;2024-01-15T14:42:17;3.63;;;1.65;;
50543;SDS011;41176;44.032;20.900;2024-01-15T14:44:43;2.03;;;1.25;;
50543;SDS011;41176;44.032;20.900;2024-01-15T14:47:08;2.13;;;0.80;;
50543;SDS011;41176;44.032;20.900;2024-01-15T14:49:35;1.80;;;1.42;;
50543;SDS011;41176;44.032;20.900;2024-01-15T14:52:01;1.58;;;1.10;;